Time;durP1;ratioP1;P1;durP2;ratioP2;P2;SDS_P1;SDS_P2;PMS_P1;PMS_P2;Temp;Humidity;BMP_temperature;BMP_pressure;BME280_temperature;BME280_humidity;BME280_pressure;Samples;Min_cycle;Max_cycle;Signal;HPM_P1;HPM_P2
2022/04/06 00:01:43;;;;;;;36.90;14.68;;;8.50;99.90;;;;;;4977737;28;20049;-77
2022/04/06 00:04:09;;;;;;;38.17;14.60;;;8.50;99.90;;;;;;4990021;28;259882;-76
2022/04/06 00:06:36;;;;;;;38.22;15.63;;;8.60;99.90;;;;;;4985911;28;20045;-76
2022/04/06 00:09:03;;;;;;;34.40;14.65;;;8.50;99.90;;;;;;4992477;28;266942;-76
2022/04/06 00:11:30;;;;;;;36.40;14.05;;;8.50;99.90;;;;;;4984177;28;20045;-77
2022/04/06 00:13:57;;;;;;;36.75;13.95;;;8.60;99.90;;;;;;5004050;28;257761;-76
2022/04/06 00:16:24;;;;;;;37.67;14.55;;;8.60;99.90;;;;;;4987567;28;20041;-77
2022/04/06 00:18:51;;;;;;;34.67;12.82;;;8.60;99.90;;;;;;5023663;28;254216;-77
2022/04/06 00:21:19;;;;;;;35.15;13.13;;;8.60;99.90;;;;;;4974421;28;20049;-76
2022/04/06 00:23:45;;;;;;;39.78;14.07;;;8.60;99.90;;;;;;5002293;28;20056;-76
2022/04/06 00:26:11;;;;;;;41.28;14.65;;;8.60;99.90;;;;;;4979903;28;194522;-77
2022/04/06 00:28:37;;;;;;;33.38;13.52;;;8.60;99.90;;;;;;5020743;28;20058;-76
2022/04/06 00:31:04;;;;;;;31.67;13.55;;;8.60;99.90;;;;;;4972745;28;51102;-75
2022/04/06 00:33:30;;;;;;;33.05;14.13;;;8.60;99.90;;;;;;5015683;28;20045;-76
2022/04/06 00:35:56;;;;;;;42.20;13.77;;;8.70;99.90;;;;;;4972241;28;132449;-76
2022/04/06 00:38:23;;;;;;;35.85;13.48;;;8.70;99.90;;;;;;5025271;28;20053;-76
2022/04/06 00:40:49;;;;;;;36.75;12.88;;;8.60;99.90;;;;;;4970872;28;26919;-77
2022/04/06 00:43:15;;;;;;;34.42;13.00;;;8.60;99.90;;;;;;5027292;28;20060;-77
2022/04/06 00:45:43;;;;;;;40.20;13.60;;;8.70;99.90;;;;;;4987204;28;98376;-76
2022/04/06 00:48:11;;;;;;;41.85;14.05;;;8.70;99.90;;;;;;5020750;28;20053;-76
2022/04/06 00:50:38;;;;;;;34.50;12.90;;;8.70;99.90;;;;;;4950294;28;176165;-76
2022/04/06 00:53:04;;;;;;;33.92;12.65;;;8.60;99.90;;;;;;5007762;28;20045;-77
2022/04/06 00:55:33;;;;;;;34.13;11.25;;;8.70;99.90;;;;;;4984723;28;137539;-77
2022/04/06 00:57:59;;;;;;;30.88;11.65;;;8.70;99.90;;;;;;5006908;28;20060;-76
2022/04/06 01:00:26;;;;;;;36.33;12.85;;;8.70;99.90;;;;;;5005499;28;155815;-76
2022/04/06 01:02:52;;;;;;;34.58;12.52;;;8.70;99.90;;;;;;5001487;28;20050;-76
2022/04/06 01:05:19;;;;;;;30.73;11.57;;;8.70;99.90;;;;;;4989859;28;129479;-76
2022/04/06 01:07:48;;;;;;;29.83;10.50;;;8.70;99.90;;;;;;4982610;28;20080;-77
2022/04/06 01:10:15;;;;;;;34.22;10.80;;;8.70;99.90;;;;;;5011667;28;221144;-76
2022/04/06 01:12:45;;;;;;;28.15;10.32;;;8.70;99.90;;;;;;4992536;28;20048;-76
2022/04/06 01:15:12;;;;;;;29.02;10.50;;;8.70;99.90;;;;;;5009814;28;81665;-77
2022/04/06 01:17:38;;;;;;;34.20;10.73;;;8.70;99.90;;;;;;4986266;28;20040;-77
2022/04/06 01:20:07;;;;;;;24.58;9.40;;;8.70;99.90;;;;;;5020002;28;20055;-76
2022/04/06 01:22:34;;;;;;;29.52;9.60;;;8.70;99.90;;;;;;4992444;28;20053;-78
2022/04/06 01:25:01;;;;;;;27.83;10.05;;;8.80;99.90;;;;;;4997437;28;188852;-76
2022/04/06 01:27:28;;;;;;;27.25;9.70;;;8.80;99.90;;;;;;4989907;28;20049;-76
2022/04/06 01:29:54;;;;;;;25.25;9.65;;;8.80;99.90;;;;;;5006978;28;100287;-77
2022/04/06 01:32:24;;;;;;;25.10;9.88;;;8.80;99.90;;;;;;4998356;28;20675;-77
2022/04/06 01:34:53;;;;;;;29.92;10.48;;;8.80;99.90;;;;;;5002953;28;194203;-77
2022/04/06 01:37:19;;;;;;;25.38;10.30;;;8.80;99.90;;;;;;4990699;28;20044;-77
2022/04/06 01:39:47;;;;;;;25.23;10.32;;;8.80;99.90;;;;;;5012695;28;125991;-76
2022/04/06 01:42:16;;;;;;;27.17;11.13;;;8.80;99.90;;;;;;4992527;28;20037;-76
2022/04/06 01:44:44;;;;;;;27.38;10.85;;;8.80;99.90;;;;;;5013624;28;160007;-76
2022/04/06 01:47:12;;;;;;;23.40;10.75;;;8.80;99.90;;;;;;4978364;28;20042;-76
2022/04/06 01:52:23;;;;;;;29.98;10.35;;;8.80;99.90;;;;;;4958777;28;20050;-77
2022/04/06 01:54:52;;;;;;;28.77;11.10;;;8.80;99.90;;;;;;4947569;28;112454;-77
2022/04/06 01:57:18;;;;;;;25.13;9.90;;;8.80;99.90;;;;;;4932866;28;20128;-77
2022/04/06 01:59:44;;;;;;;24.30;9.10;;;8.80;99.90;;;;;;4970203;28;53443;-77
2022/04/06 02:02:13;;;;;;;25.60;9.23;;;8.80;99.90;;;;;;4952593;28;22040;-77
2022/04/06 02:04:39;;;;;;;23.75;8.73;;;8.80;99.90;;;;;;4973078;23;147015;-76
2022/04/06 02:07:06;;;;;;;22.35;8.73;;;8.80;99.90;;;;;;4945178;28;20077;-77
2022/04/06 02:09:32;;;;;;;22.75;7.85;;;8.90;99.90;;;;;;4994744;28;133394;-77
2022/04/06 02:12:00;;;;;;;22.75;8.30;;;8.90;99.90;;;;;;4959173;28;20041;-77
2022/04/06 02:14:26;;;;;;;23.63;8.20;;;8.80;99.90;;;;;;4969921;28;105009;-77
2022/04/06 02:16:53;;;;;;;19.00;6.78;;;8.90;99.90;;;;;;4943049;28;20042;-77
2022/04/06 02:19:21;;;;;;;23.15;7.43;;;8.90;99.90;;;;;;4969519;28;230256;-77
2022/04/06 02:21:47;;;;;;;17.92;6.88;;;8.90;99.90;;;;;;4988173;28;20041;-78
2022/04/06 02:24:13;;;;;;;17.48;6.75;;;8.80;99.90;;;;;;4982533;28;158408;-76
2022/04/06 02:26:41;;;;;;;24.45;6.97;;;8.90;99.90;;;;;;4971334;28;20049;-76
2022/04/06 02:29:07;;;;;;;25.30;6.72;;;8.90;99.90;;;;;;4971288;28;271881;-76
2022/04/06 02:31:34;;;;;;;22.67;6.78;;;8.80;99.90;;;;;;4964799;28;20520;-76
2022/04/06 02:34:00;;;;;;;17.63;6.10;;;8.90;99.90;;;;;;4972838;28;274934;-76
2022/04/06 02:36:26;;;;;;;22.50;6.22;;;8.80;99.90;;;;;;4953531;28;20138;-77
2022/04/06 02:38:52;;;;;;;24.58;6.45;;;8.80;99.90;;;;;;4983905;28;263786;-76
2022/04/06 02:41:19;;;;;;;19.45;5.78;;;8.80;99.90;;;;;;4958015;28;20045;-77
2022/04/06 02:43:45;;;;;;;19.25;5.78;;;8.80;99.90;;;;;;4995338;28;20073;-77
2022/04/06 02:46:12;;;;;;;16.55;5.65;;;8.80;99.90;;;;;;4963296;28;266129;-76
2022/04/06 02:48:38;;;;;;;19.83;5.43;;;8.80;99.90;;;;;;4996137;28;20054;-76
2022/04/06 02:51:04;;;;;;;21.58;5.72;;;8.80;99.90;;;;;;4941141;28;289886;-77
2022/04/06 02:53:30;;;;;;;16.05;5.82;;;8.70;99.90;;;;;;4970477;28;20072;-76
2022/04/06 02:55:56;;;;;;;16.00;5.20;;;8.80;99.90;;;;;;4943466;28;171773;-77
2022/04/06 02:58:22;;;;;;;17.73;4.82;;;8.80;99.90;;;;;;4987980;28;20065;-76
2022/04/06 03:00:48;;;;;;;17.67;5.03;;;8.70;99.90;;;;;;4935243;28;54377;-76
2022/04/06 03:03:15;;;;;;;17.25;5.10;;;8.80;99.90;;;;;;4999455;28;20058;-76
2022/04/06 03:05:41;;;;;;;15.23;5.10;;;8.80;99.90;;;;;;4946968;28;122114;-76
2022/04/06 03:08:07;;;;;;;18.20;5.10;;;8.80;99.90;;;;;;4978807;28;20051;-77
2022/04/06 03:10:34;;;;;;;18.25;5.15;;;8.80;99.90;;;;;;4952267;28;252467;-77
2022/04/06 03:13:00;;;;;;;16.08;5.07;;;8.80;99.90;;;;;;4972948;28;20062;-76
2022/04/06 03:15:27;;;;;;;21.25;5.47;;;8.80;99.90;;;;;;4970549;28;205534;-77
2022/04/06 03:17:53;;;;;;;16.63;5.38;;;8.80;99.90;;;;;;4960988;28;20042;-77
2022/04/06 03:20:20;;;;;;;21.15;5.70;;;8.80;99.90;;;;;;4973811;28;99438;-77
2022/04/06 03:22:46;;;;;;;18.65;5.45;;;8.80;99.90;;;;;;4978716;28;20064;-77
2022/04/06 03:25:12;;;;;;;22.75;6.43;;;8.70;99.90;;;;;;4965141;28;208780;-76
2022/04/06 03:27:38;;;;;;;22.48;6.38;;;8.70;99.90;;;;;;4950285;28;20233;-75
2022/04/06 03:30:06;;;;;;;21.17;6.63;;;8.80;99.90;;;;;;5007649;28;239764;-75
2022/04/06 03:32:32;;;;;;;22.80;6.97;;;8.70;99.90;;;;;;4986645;28;20779;-76
2022/04/06 03:34:59;;;;;;;22.88;6.85;;;8.80;99.90;;;;;;4972371;28;72828;-76
2022/04/06 03:37:25;;;;;;;26.77;8.25;;;8.80;99.90;;;;;;4966392;28;20048;-77
2022/04/06 03:39:51;;;;;;;26.75;8.48;;;8.80;99.90;;;;;;4968028;28;255529;-77
2022/04/06 03:42:17;;;;;;;26.90;8.48;;;8.80;99.90;;;;;;4968717;28;20057;-76
2022/04/06 03:44:43;;;;;;;25.75;8.95;;;8.80;99.90;;;;;;4971613;28;227487;-77
2022/04/06 03:47:09;;;;;;;27.17;9.05;;;8.80;99.90;;;;;;4971470;28;20053;-77
2022/04/06 03:49:35;;;;;;;27.25;9.38;;;8.80;99.90;;;;;;4978788;28;42711;-77
2022/04/06 03:52:03;;;;;;;25.35;9.20;;;8.80;99.90;;;;;;4969947;28;20052;-76
2022/04/06 03:54:29;;;;;;;26.75;8.80;;;8.80;99.90;;;;;;4969491;28;183711;-76
2022/04/06 03:56:55;;;;;;;29.02;9.63;;;8.80;99.90;;;;;;4945324;28;20041;-76
2022/04/06 03:59:21;;;;;;;29.67;10.30;;;8.80;99.90;;;;;;4976960;28;111642;-76
2022/04/06 04:01:47;;;;;;;26.25;9.85;;;8.80;99.90;;;;;;4962412;28;20045;-76
2022/04/06 04:04:13;;;;;;;34.45;10.93;;;8.90;99.90;;;;;;4965233;28;166428;-76
2022/04/06 04:06:39;;;;;;;30.48;10.63;;;8.90;99.90;;;;;;4981748;28;20338;-76
2022/04/06 04:09:06;;;;;;;29.45;10.98;;;8.80;99.90;;;;;;4979185;28;268282;-75
2022/04/06 04:11:33;;;;;;;33.78;11.07;;;8.90;99.90;;;;;;4953065;28;20435;-77
2022/04/06 04:14:00;;;;;;;33.17;11.23;;;8.90;99.90;;;;;;4969583;28;267119;-76
2022/04/06 04:16:26;;;;;;;29.13;10.52;;;8.90;99.90;;;;;;4953586;28;20030;-77
2022/04/06 04:18:52;;;;;;;27.63;10.90;;;8.90;99.90;;;;;;4978984;28;264652;-77
2022/04/06 04:21:32;;;;;;;31.42;11.05;;;8.90;99.90;;;;;;4963452;28;20046;-77
2022/04/06 04:24:04;;;;;;;30.00;10.43;;;8.90;99.90;;;;;;4971377;28;254715;-76
2022/04/06 04:26:31;;;;;;;31.15;10.40;;;8.90;99.90;;;;;;4949981;28;20925;-77
2022/04/06 04:28:58;;;;;;;28.85;9.63;;;8.90;99.90;;;;;;4972240;28;255015;-77
2022/04/06 04:31:24;;;;;;;27.95;9.52;;;8.90;99.90;;;;;;4940612;28;20507;-77
2022/04/06 04:33:50;;;;;;;30.05;8.85;;;8.90;99.90;;;;;;4976986;28;255633;-78
2022/04/06 04:36:16;;;;;;;27.73;9.15;;;8.90;99.90;;;;;;4959010;28;20050;-77
2022/04/06 04:38:43;;;;;;;30.23;8.50;;;8.80;99.90;;;;;;4975005;28;20058;-78
2022/04/06 04:41:09;;;;;;;27.27;7.93;;;8.80;99.90;;;;;;4940923;28;219147;-77
2022/04/06 04:43:36;;;;;;;25.20;8.07;;;8.80;99.90;;;;;;5009560;28;20058;-77
2022/04/06 04:46:04;;;;;;;25.08;7.82;;;8.80;99.90;;;;;;4949855;28;223815;-77
2022/04/06 04:48:30;;;;;;;19.95;6.88;;;8.70;99.90;;;;;;4994749;28;20057;-77
2022/04/06 04:50:57;;;;;;;23.95;7.32;;;8.70;99.90;;;;;;4935887;28;115149;-77
2022/04/06 04:53:23;;;;;;;26.30;7.75;;;8.70;99.90;;;;;;4975693;28;20507;-78
2022/04/06 04:55:50;;;;;;;26.30;6.32;;;8.70;99.90;;;;;;4914935;28;20437;-78
2022/04/06 04:58:16;;;;;;;25.55;6.78;;;8.70;99.90;;;;;;4959651;28;20066;-78
2022/04/06 05:00:42;;;;;;;23.25;6.53;;;8.60;99.90;;;;;;4947464;28;136847;-77
2022/04/06 05:03:08;;;;;;;26.15;6.80;;;8.60;99.90;;;;;;4974186;28;20053;-79
2022/04/06 05:05:35;;;;;;;20.48;6.15;;;8.60;99.90;;;;;;4947680;28;132623;-78
2022/04/06 05:08:02;;;;;;;19.77;6.13;;;8.60;99.90;;;;;;4981430;28;20112;-76
2022/04/06 05:10:28;;;;;;;21.20;6.13;;;8.50;99.90;;;;;;4963618;28;258400;-77
2022/04/06 05:12:54;;;;;;;24.38;6.30;;;8.50;99.90;;;;;;4973516;28;20042;-77
2022/04/06 05:15:20;;;;;;;23.52;5.20;;;8.50;99.90;;;;;;4961730;28;222845;-78
2022/04/06 05:17:47;;;;;;;26.80;5.85;;;8.50;99.90;;;;;;4954301;28;20049;-77
2022/04/06 05:20:13;;;;;;;26.02;5.68;;;8.50;99.90;;;;;;4980952;28;272808;-77
2022/04/06 05:22:40;;;;;;;20.23;5.85;;;8.40;99.90;;;;;;4979835;28;20559;-78
2022/04/06 05:25:07;;;;;;;23.33;5.65;;;8.40;99.90;;;;;;4979358;28;119801;-77
2022/04/06 05:27:43;;;;;;;24.02;5.53;;;8.40;99.90;;;;;;4981170;28;20050;-78
2022/04/06 05:30:10;;;;;;;21.60;4.85;;;8.40;99.90;;;;;;4965887;28;24713;-76
2022/04/06 05:32:36;;;;;;;20.35;4.97;;;8.40;99.90;;;;;;4971496;28;20062;-77
2022/04/06 05:35:02;;;;;;;24.35;5.28;;;8.40;99.90;;;;;;4972650;28;37738;-77
2022/04/06 05:37:29;;;;;;;23.67;4.88;;;8.40;99.90;;;;;;4972247;28;20046;-78
2022/04/06 05:39:55;;;;;;;20.40;4.90;;;8.40;99.90;;;;;;4972720;28;142024;-77
2022/04/06 05:42:21;;;;;;;17.83;4.32;;;8.40;99.90;;;;;;4970521;28;20042;-77
2022/04/06 05:44:47;;;;;;;20.85;4.28;;;8.40;99.90;;;;;;5000638;28;91231;-76
2022/04/06 05:47:14;;;;;;;19.27;4.13;;;8.40;99.90;;;;;;4970801;28;20192;-78
2022/04/06 05:49:40;;;;;;;16.65;3.78;;;8.40;99.90;;;;;;4994270;28;241006;-76
2022/04/06 05:52:08;;;;;;;18.27;3.88;;;8.40;99.90;;;;;;4966487;28;20061;-78
2022/04/06 05:54:35;;;;;;;21.27;3.92;;;8.40;99.90;;;;;;4969493;28;180943;-76
2022/04/06 05:57:01;;;;;;;16.92;4.00;;;8.40;99.90;;;;;;4983033;28;20470;-76
2022/04/06 05:59:27;;;;;;;21.50;4.03;;;8.30;99.90;;;;;;4976954;28;231200;-76
2022/04/06 06:01:53;;;;;;;16.00;4.00;;;8.30;99.90;;;;;;4964790;28;20054;-76
2022/04/06 06:04:19;;;;;;;15.73;3.45;;;8.30;99.90;;;;;;4960497;28;252591;-77
2022/04/06 06:06:45;;;;;;;15.65;3.65;;;8.30;99.90;;;;;;4959657;28;20058;-77
2022/04/06 06:09:11;;;;;;;16.13;4.10;;;8.30;99.90;;;;;;4986356;28;261461;-77
2022/04/06 06:11:37;;;;;;;17.02;4.35;;;8.30;99.90;;;;;;4960751;28;20033;-77
2022/04/06 06:14:03;;;;;;;14.32;3.72;;;8.30;99.90;;;;;;4961980;28;254496;-76
2022/04/06 06:16:30;;;;;;;16.75;3.75;;;8.20;99.90;;;;;;4959037;28;20033;-77
2022/04/06 06:18:56;;;;;;;16.23;4.38;;;8.20;99.90;;;;;;4985099;28;250783;-77
2022/04/06 06:21:23;;;;;;;20.60;4.15;;;8.20;99.90;;;;;;4978101;28;20049;-77
2022/04/06 06:23:49;;;;;;;22.60;4.47;;;8.20;99.90;;;;;;4975596;28;267642;-77
2022/04/06 06:26:16;;;;;;;18.02;3.72;;;8.10;99.90;;;;;;4964171;28;20045;-77
2022/04/06 06:28:42;;;;;;;16.17;3.80;;;8.10;99.90;;;;;;4992408;28;20491;-77
2022/04/06 06:31:08;;;;;;;12.10;3.10;;;8.10;99.90;;;;;;4946287;28;190989;-77
2022/04/06 06:33:34;;;;;;;16.48;3.80;;;8.10;99.90;;;;;;4984803;28;20050;-77
2022/04/06 06:36:00;;;;;;;18.35;3.65;;;8.10;99.90;;;;;;4938211;28;160303;-76
2022/04/06 06:38:27;;;;;;;16.80;3.42;;;8.10;99.90;;;;;;5008793;28;20045;-77
2022/04/06 06:40:54;;;;;;;17.45;3.85;;;8.10;99.90;;;;;;4957322;28;252439;-77
2022/04/06 06:43:20;;;;;;;17.00;3.40;;;8.10;99.90;;;;;;5002719;28;20490;-77
2022/04/06 06:45:46;;;;;;;14.00;2.70;;;8.10;99.90;;;;;;4960169;28;256486;-77
2022/04/06 06:48:12;;;;;;;18.73;3.05;;;8.10;99.90;;;;;;5008669;28;20068;-76
2022/04/06 06:50:38;;;;;;;15.85;3.13;;;8.10;99.90;;;;;;4947179;28;165706;-77
2022/04/06 06:53:05;;;;;;;15.55;3.28;;;8.10;99.90;;;;;;4993741;28;20054;-77
2022/04/06 06:55:31;;;;;;;21.08;3.35;;;8.10;99.90;;;;;;4947636;28;88177;-77
2022/04/06 06:57:57;;;;;;;15.43;3.05;;;8.10;99.90;;;;;;5010567;28;20066;-76
2022/04/06 07:00:23;;;;;;;16.30;3.00;;;8.20;99.90;;;;;;4981018;28;263588;-77
2022/04/06 07:02:49;;;;;;;17.50;3.10;;;8.20;99.90;;;;;;4960297;28;20053;-76
2022/04/06 07:05:15;;;;;;;16.40;3.10;;;8.20;99.90;;;;;;4966681;28;254037;-76
2022/04/06 07:07:51;;;;;;;16.00;4.10;;;8.20;99.90;;;;;;4968725;28;20046;-76
2022/04/06 07:10:17;;;;;;;20.63;4.40;;;8.10;99.90;;;;;;4962826;28;224419;-77
2022/04/06 07:12:43;;;;;;;15.65;3.50;;;8.10;99.90;;;;;;4930435;28;20455;-76
2022/04/06 07:15:09;;;;;;;16.40;3.92;;;8.10;99.90;;;;;;4973896;28;249162;-77
2022/04/06 07:17:35;;;;;;;15.82;3.95;;;8.10;99.90;;;;;;4961098;28;20532;-77
2022/04/06 07:20:02;;;;;;;15.82;3.20;;;8.10;99.90;;;;;;4976953;28;145194;-76
2022/04/06 07:22:28;;;;;;;18.27;4.38;;;8.10;99.90;;;;;;4977603;28;20053;-77
2022/04/06 07:24:54;;;;;;;20.80;3.88;;;8.10;99.90;;;;;;4971994;28;266733;-76
2022/04/06 07:27:21;;;;;;;23.92;4.07;;;8.10;99.90;;;;;;4939410;28;20045;-76
2022/04/06 07:29:47;;;;;;;17.65;3.75;;;8.10;99.90;;;;;;4957042;28;66832;-76
2022/04/06 07:32:13;;;;;;;19.55;4.13;;;8.10;99.90;;;;;;4973591;28;20069;-76
2022/04/06 07:34:39;;;;;;;25.02;6.20;;;8.20;99.90;;;;;;4954629;28;153811;-77
2022/04/06 07:37:05;;;;;;;21.88;5.72;;;8.20;99.90;;;;;;4981820;28;20046;-75
2022/04/06 07:39:31;;;;;;;22.90;5.28;;;8.20;99.90;;;;;;4976042;28;172162;-76
2022/04/06 07:41:58;;;;;;;20.90;4.75;;;8.20;99.90;;;;;;4981585;28;20061;-76
2022/04/06 07:44:24;;;;;;;20.52;4.22;;;8.20;99.90;;;;;;4977505;28;89835;-75
2022/04/06 07:46:53;;;;;;;19.05;4.85;;;8.20;99.90;;;;;;4990072;28;20514;-76
2022/04/06 07:49:19;;;;;;;20.98;4.60;;;8.20;99.90;;;;;;4999839;28;267266;-77
2022/04/06 07:51:46;;;;;;;24.92;5.25;;;8.20;99.90;;;;;;4997454;28;20053;-76
2022/04/06 07:54:13;;;;;;;24.45;4.70;;;8.20;99.90;;;;;;4978820;28;259117;-76
2022/04/06 07:56:40;;;;;;;24.50;4.93;;;8.30;99.90;;;;;;4943773;28;20053;-76
2022/04/06 07:59:06;;;;;;;25.13;4.67;;;8.20;99.90;;;;;;4969830;28;275784;-76
2022/04/06 08:01:33;;;;;;;22.02;4.50;;;8.30;99.90;;;;;;4949760;28;20406;-75
2022/04/06 08:03:59;;;;;;;26.23;5.43;;;8.30;99.90;;;;;;4982086;23;281534;-72
2022/04/06 08:06:25;;;;;;;21.42;4.85;;;8.30;99.90;;;;;;4991712;28;20228;-72
2022/04/06 08:08:53;;;;;;;22.63;4.72;;;8.30;99.90;;;;;;4995395;28;260964;-73
2022/04/06 08:11:20;;;;;;;21.77;4.60;;;8.30;99.90;;;;;;4980401;28;20421;-73
2022/04/06 08:13:47;;;;;;;22.45;5.45;;;8.30;99.90;;;;;;5016326;28;20829;-72
2022/04/06 08:16:13;;;;;;;24.27;5.20;;;8.30;99.90;;;;;;4981171;28;148474;-72
2022/04/06 08:18:40;;;;;;;25.42;5.20;;;8.30;99.90;;;;;;4995377;28;20057;-72
2022/04/06 08:21:06;;;;;;;19.02;5.03;;;8.30;99.90;;;;;;4994278;28;258777;-72
2022/04/06 08:23:32;;;;;;;28.90;5.72;;;8.30;99.90;;;;;;5035974;28;20049;-71
2022/04/06 08:25:58;;;;;;;20.60;5.35;;;8.30;99.90;;;;;;4968807;28;90630;-72
2022/04/06 08:28:25;;;;;;;20.33;5.30;;;8.40;99.90;;;;;;5023604;28;20037;-72
2022/04/06 08:30:51;;;;;;;18.70;5.38;;;8.40;99.90;;;;;;4988347;28;22763;-72
2022/04/06 08:33:17;;;;;;;18.02;4.78;;;8.40;99.90;;;;;;5027332;28;20065;-73
2022/04/06 08:35:43;;;;;;;24.02;5.10;;;8.40;99.90;;;;;;4980430;28;130219;-73
2022/04/06 08:38:15;;;;;;;21.90;5.75;;;8.40;99.90;;;;;;5001365;28;20050;-72
2022/04/06 08:40:45;;;;;;;16.50;4.00;;;8.40;99.90;;;;;;4984497;28;61168;-73
2022/04/06 08:43:11;;;;;;;19.42;5.22;;;8.40;99.90;;;;;;5007859;28;20053;-73
2022/04/06 08:45:39;;;;;;;19.73;4.30;;;8.50;99.90;;;;;;4979868;28;94418;-73
2022/04/06 08:48:10;;;;;;;17.23;4.43;;;8.40;99.90;;;;;;4995977;28;20046;-72
2022/04/06 08:50:37;;;;;;;23.38;5.43;;;8.40;99.90;;;;;;4957435;28;128043;-73
2022/04/06 08:53:06;;;;;;;23.10;4.50;;;8.50;99.90;;;;;;5017523;28;20045;-73
2022/04/06 08:55:33;;;;;;;20.40;5.13;;;8.50;99.90;;;;;;4957513;28;162360;-74
2022/04/06 08:58:00;;;;;;;19.88;5.25;;;8.60;99.90;;;;;;5007436;28;20050;-73
2022/04/06 09:00:27;;;;;;;22.85;4.78;;;8.60;99.90;;;;;;4996899;28;148559;-73
2022/04/06 09:02:53;;;;;;;22.15;4.20;;;8.60;99.90;;;;;;4996327;28;20045;-73
2022/04/06 09:05:23;;;;;;;20.30;4.18;;;8.60;99.90;;;;;;4997441;28;123983;-73
2022/04/06 09:07:51;;;;;;;16.40;3.97;;;8.70;99.90;;;;;;4987929;28;20124;-73
2022/04/06 09:10:33;;;;;;;17.67;4.57;;;8.70;99.90;;;;;;5018034;28;34232;-73
2022/04/06 09:13:20;;;;;;;21.85;4.32;;;8.80;99.90;;;;;;4972751;28;20045;-73
2022/04/06 09:15:50;;;;;;;15.50;4.03;;;8.90;99.90;;;;;;4967818;28;139166;-73
2022/04/06 09:18:16;;;;;;;17.30;3.75;;;8.90;99.90;;;;;;5011757;28;20469;-73
2022/04/06 09:20:42;;;;;;;18.80;3.47;;;9.00;99.90;;;;;;4988836;28;20045;-74
2022/04/06 09:23:08;;;;;;;16.42;3.58;;;9.10;99.90;;;;;;5026784;28;20387;-73
2022/04/06 09:25:36;;;;;;;20.45;4.70;;;9.10;99.90;;;;;;4980848;28;197457;-73
2022/04/06 09:28:10;;;;;;;23.02;3.88;;;9.10;99.90;;;;;;5023041;28;20045;-73
2022/04/06 09:30:42;;;;;;;16.17;3.88;;;9.10;99.90;;;;;;4984446;28;144683;-74
2022/04/06 09:33:18;;;;;;;15.35;3.20;;;9.20;99.90;;;;;;5038897;28;20050;-73
2022/04/06 09:35:45;;;;;;;13.75;3.20;;;9.10;99.90;;;;;;4986043;28;66928;-73
2022/04/06 09:38:22;;;;;;;16.98;3.85;;;9.20;99.90;;;;;;5015893;28;20057;-73
2022/04/06 09:40:49;;;;;;;16.02;3.90;;;9.20;99.90;;;;;;4981164;28;223582;-73
2022/04/06 09:43:27;;;;;;;14.30;3.67;;;9.20;99.90;;;;;;5025860;28;20549;-73
2022/04/06 09:48:57;;;;;;;18.27;3.80;;;9.30;99.90;;;;;;5024498;28;20052;-73
2022/04/06 09:51:24;;;;;;;20.70;3.90;;;9.40;99.90;;;;;;4966907;28;20708;-73
2022/04/06 09:53:51;;;;;;;18.58;4.10;;;9.40;99.90;;;;;;5005101;28;262110;-72
2022/04/06 09:56:18;;;;;;;21.10;4.47;;;9.50;99.90;;;;;;5012831;28;20053;-73
2022/04/06 09:58:45;;;;;;;15.63;4.15;;;9.50;99.90;;;;;;5004261;28;20406;-74
2022/04/06 10:01:15;;;;;;;15.55;4.10;;;9.50;99.90;;;;;;4985414;28;64548;-74
2022/04/06 10:03:50;;;;;;;14.83;3.87;;;9.60;99.90;;;;;;5035534;28;20049;-73
2022/04/06 10:06:17;;;;;;;17.85;4.38;;;9.60;99.90;;;;;;4974144;28;83089;-74
2022/04/06 10:08:43;;;;;;;18.30;4.15;;;9.60;99.90;;;;;;5007869;28;20053;-73
2022/04/06 10:11:11;;;;;;;17.50;4.72;;;9.60;99.90;;;;;;4977272;28;236226;-73
2022/04/06 10:13:40;;;;;;;17.52;4.45;;;9.60;99.90;;;;;;5025124;28;20962;-74
2022/04/06 10:16:10;;;;;;;19.05;4.80;;;9.60;99.90;;;;;;4983138;28;129738;-74
2022/04/06 10:18:36;;;;;;;17.63;4.38;;;9.60;99.90;;;;;;5021273;28;20494;-73
2022/04/06 10:21:14;;;;;;;20.88;4.95;;;9.60;99.90;;;;;;4980562;28;255354;-74
2022/04/06 10:24:09;;;;;;;22.83;5.30;;;9.60;99.90;;;;;;5005302;28;20521;-75
2022/04/06 10:26:57;;;;;;;17.88;5.55;;;9.60;99.90;;;;;;4950737;28;20041;-75
2022/04/06 10:29:23;;;;;;;16.45;5.00;;;9.60;99.90;;;;;;5009646;28;212770;-74
2022/04/06 10:31:49;;;;;;;23.20;5.70;;;9.60;99.90;;;;;;4975917;28;20435;-74
2022/04/06 10:34:24;;;;;;;19.58;5.22;;;9.60;99.90;;;;;;4995302;28;106966;-75
2022/04/06 10:37:16;;;;;;;21.05;5.55;;;9.60;99.90;;;;;;4973010;28;20042;-76
2022/04/06 10:39:50;;;;;;;17.23;5.03;;;9.60;99.90;;;;;;4993596;28;147410;-77
2022/04/06 10:42:28;;;;;;;20.60;5.20;;;9.60;99.90;;;;;;4982762;28;20056;-77
2022/04/06 10:44:55;;;;;;;22.30;5.80;;;9.70;99.90;;;;;;5014191;28;150534;-76
2022/04/06 10:47:22;;;;;;;19.50;6.13;;;9.70;99.90;;;;;;4957334;28;20052;-77
2022/04/06 10:50:27;;;;;;;20.08;6.25;;;9.70;99.90;;;;;;4992927;28;224427;-76
2022/04/06 10:53:22;;;;;;;19.23;5.68;;;9.60;99.90;;;;;;4942889;28;20054;-76
2022/04/06 10:56:03;;;;;;;21.52;6.32;;;9.60;99.90;;;;;;4961756;28;98218;-76
2022/04/06 10:58:48;;;;;;;;;;;9.70;99.90;;;;;;5006419;28;20445;-76
2022/04/06 11:01:18;;;;;;;20.80;6.28;;;9.70;99.90;;;;;;4961000;28;20309;-76
2022/04/06 11:04:05;;;;;;;24.00;6.77;;;9.60;99.90;;;;;;4996681;28;20045;-77
2022/04/06 11:06:40;;;;;;;19.67;7.05;;;9.70;99.90;;;;;;4936115;28;159183;-76
2022/04/06 11:12:27;;;;;;;19.15;6.00;;;9.70;99.90;;;;;;4976644;28;20529;-76
2022/04/06 11:14:59;;;;;;;19.50;6.87;;;9.70;99.90;;;;;;4987588;28;98386;-76
2022/04/06 11:17:44;;;;;;;23.40;6.70;;;9.70;99.90;;;;;;4973378;28;20053;-76
2022/04/06 11:20:16;;;;;;;16.70;6.32;;;9.70;99.90;;;;;;4991806;28;108695;-76
2022/04/06 11:22:53;;;;;;;16.45;6.10;;;9.80;99.90;;;;;;4972822;28;20053;-76
2022/04/06 11:25:21;;;;;;;17.13;6.50;;;9.80;99.90;;;;;;5014409;28;20057;-76
2022/04/06 11:27:49;;;;;;;18.13;6.75;;;10.00;99.90;;;;;;4950718;28;20045;-77
2022/04/06 11:30:17;;;;;;;20.73;6.45;;;10.40;99.90;;;;;;5010966;28;68902;-77
2022/04/06 11:32:51;;;;;;;22.20;7.03;;;10.50;99.90;;;;;;4976362;28;20453;-76
2022/04/06 11:35:18;;;;;;;18.80;6.32;;;10.60;99.90;;;;;;4994818;28;25681;-77
2022/04/06 11:37:49;;;;;;;23.30;6.65;;;10.80;99.90;;;;;;4974003;28;20486;-77
2022/04/06 11:40:17;;;;;;;16.90;5.55;;;10.70;99.90;;;;;;4994660;28;163087;-75
2022/04/06 11:42:50;;;;;;;21.75;6.20;;;10.70;99.90;;;;;;4988485;28;20061;-76
2022/04/06 11:45:23;;;;;;;21.50;6.40;;;10.60;99.90;;;;;;4995453;28;170260;-77
2022/04/06 11:47:54;;;;;;;21.17;5.90;;;10.60;99.90;;;;;;4973995;28;20037;-77
2022/04/06 11:50:21;;;;;;;17.40;6.05;;;10.50;99.90;;;;;;5013623;28;29620;-77
2022/04/06 11:52:49;;;;;;;18.83;5.85;;;10.50;99.90;;;;;;4965131;28;20045;-77
2022/04/06 11:55:15;;;;;;;18.92;6.10;;;10.50;99.90;;;;;;4994513;28;30823;-78
2022/04/06 11:57:46;;;;;;;21.33;7.00;;;10.70;99.90;;;;;;4979072;28;20045;-78
2022/04/06 12:00:15;;;;;;;18.65;5.68;;;11.00;99.90;;;;;;5009710;28;235964;-77
2022/04/06 12:02:55;;;;;;;21.20;4.93;;;11.30;99.90;;;;;;4995790;28;20666;-77
2022/04/06 12:05:23;;;;;;;18.27;5.05;;;11.30;99.90;;;;;;4988151;28;236549;-78
2022/04/06 12:08:15;;;;;;;23.70;5.72;;;11.30;99.90;;;;;;5007290;28;20064;-77
2022/04/06 12:10:51;;;;;;;24.40;5.75;;;11.30;99.90;;;;;;4948944;28;255633;-77
2022/04/06 12:13:18;;;;;;;22.17;5.97;;;11.40;99.90;;;;;;5023784;28;20491;-78
2022/04/06 12:15:48;;;;;;;19.30;5.68;;;11.50;99.90;;;;;;4982173;28;64523;-78
2022/04/06 12:18:19;;;;;;;19.65;5.78;;;11.70;99.90;;;;;;5010724;28;20443;-78
2022/04/06 12:20:47;;;;;;;22.00;6.60;;;11.90;99.90;;;;;;4989987;28;267161;-78
2022/04/06 12:23:14;;;;;;;16.67;5.00;;;12.00;99.90;;;;;;5024737;28;20061;-78
2022/04/06 12:25:41;;;;;;;17.85;5.28;;;12.10;99.90;;;;;;4984866;28;55648;-78
2022/04/06 12:28:11;;;;;;;19.85;5.18;;;12.20;99.90;;;;;;5004437;28;20056;-78
2022/04/06 12:30:51;;;;;;;20.88;5.88;;;12.40;99.90;;;;;;4999305;28;30834;-77
2022/04/06 12:33:38;;;;;;;17.73;5.43;;;12.70;99.90;;;;;;5024827;28;20057;-79
2022/04/06 12:36:26;;;;;;;18.88;5.18;;;12.50;99.90;;;;;;4978564;28;79152;-76
2022/04/06 12:39:16;;;;;;;20.02;5.20;;;12.30;99.90;;;;;;4979727;28;250196;-77
2022/04/06 12:41:57;;;;;;;16.63;5.55;;;12.20;99.90;;;;;;4992822;28;20037;-77
2022/04/06 12:44:23;;;;;;;20.75;5.50;;;12.10;99.90;;;;;;5007299;28;99397;-77
2022/04/06 12:46:50;;;;;;;20.73;5.57;;;12.10;99.90;;;;;;4995179;28;20037;-77
2022/04/06 12:49:36;;;;;;;17.48;4.85;;;12.10;99.90;;;;;;5014627;28;37159;-77
2022/04/06 12:52:15;;;;;;;15.35;4.63;;;12.10;99.90;;;;;;5011791;28;20045;-77
2022/04/06 12:54:44;;;;;;;17.13;5.22;;;12.00;99.90;;;;;;4993422;28;20049;-78
2022/04/06 12:57:18;;;;;;;15.18;5.10;;;11.80;99.90;;;;;;4994364;28;20051;-78